Itaimbezinho, Brazil
Current Conditions -  °F | °C
As of 3:00 PM on Monday 22 Dec 2014 (Local Time) from SBCM Reporting Station
Broken Clouds Broken Clouds  
Wind Chill: 73°   Ceiling: 5000
Heat Index: 73°   Visibility: 6mi
Dew Point: 66°   Wind: 8mph
Humidity: 78%   Direction: 190°S
Pressure: 29.94"   Gusts: NA
Location:  29.05°S, 50.14°W
Report Text: SBCM 221700Z 19007KT 9999 FEW008 BKN050 BKN100 23/19 Q1014
Loading
Personal Weather Stations






























Interactive Weather Map New forecast layout! Learn more

10-Day Weather Forecast

Advertisements
Track Severe Weather on mobile